• Join FlightAware (Why Join?)
  • Login
  • US Flag 
05:03PM EST


 

Airport Tracker/Info


-or-


 

Live Flight TrackerFlight Track Log ✈ AMF1026 ✈ 09-Aug-2013 ✈ KALB - KCVG

Flight Track Log - Related Links

Times and Time Zones

All times are in EDT time to prevent confusion due to time zone crossing. See the AMF1026 flight status page for this flight to view local times or setup timezone preferences in your user account.

Time Position Orientation Groundspeed Altitude Reporting Facility
EDT Latitude Longitude Course Direction KTS MPH feet Rate Location/Type
08:44PM 42.7631 -73.8089 335° Northwest 148 170 1,000  Level Boston Center
08:45PM 42.7900 -73.8264 335° Northwest 145 167 2,400 1,560 Climbing Boston Center
08:47PM 42.7600 -73.9022 242° Southwest 162 186 4,700 1,560 Climbing Boston Center
08:48PM 42.7508 -73.9614 258° West 162 186 6,400 1,560 Climbing Boston Center
08:49PM 42.7519 -74.0264 271° West 162 186 7,900 1,440 Climbing Boston Center
08:50PM 42.7511 -74.0858 269° West 162 186 9,300 1,260 Climbing Boston Center
08:51PM 42.7525 -74.1422 272° West 162 186 10,400 1,260 Climbing Boston Center
08:52PM 42.7533 -74.2131 271° West 162 186 11,900 1,260 Climbing Boston Center
08:53PM 42.7567 -74.2669 275° West 162 186 12,900 900 Climbing Boston Center
08:54PM 42.7581 -74.3150 272° West 162 186 13,800 1,080 Climbing Boston Center
08:55PM 42.7464 -74.3853 257° West 162 186 15,100 1,140 Climbing Boston Center
08:56PM 42.7225 -74.4467 242° Southwest 167 192 16,100 540 Climbing Boston Center
08:57PM 42.7025 -74.5053 245° Southwest 186 214 16,200  Climbing Boston Center
08:58PM 42.6742 -74.5808 243° Southwest 201 231 16,200 -60 Level Boston Center
08:59PM 42.6539 -74.6533 249° West 218 251 16,100 -60 Descending Boston Center
09:00PM 42.6356 -74.7403 254° West 226 260 16,100  Level Boston Center
09:01PM 42.6192 -74.8242 255° West 231 266 16,100  Level Boston Center
09:02PM 42.5947 -74.9053 248° West 231 266 16,100  Level Boston Center
09:03PM 42.5678 -74.9831 245° Southwest 231 266 16,100  Level Boston Center
09:04PM 42.5350 -75.0550 238° Southwest 231 266 16,100  Level Boston Center
09:05PM 42.5039 -75.1297 241° Southwest 236 272 16,100  Level Boston Center
09:06PM 42.4772 -75.2047 244° Southwest 231 266 16,100  Level Boston Center
09:07PM 42.4522 -75.2881 248° West 231 266 16,100  Level Boston Center
09:09PM 42.3861 -75.4703 244° Southwest 231 266 16,100  Level New York Center
09:10PM 42.3600 -75.5497 246° West 231 266 16,100  Level New York Center
09:11PM 42.3322 -75.6233 243° Southwest 231 266 16,100  Level New York Center
09:12PM 42.3039 -75.6997 243° Southwest 231 266 16,100  Level New York Center
09:13PM 42.2781 -75.7764 246° West 231 266 16,100  Level New York Center
09:14PM 42.2497 -75.8525 243° Southwest 231 266 16,100  Level New York Center
09:15PM 42.2236 -75.9289 245° Southwest 231 266 16,100  Level New York Center
09:16PM 42.1972 -76.0081 246° West 231 266 16,100  Level New York Center
09:17PM 42.1750 -76.0847 249° West 231 266 16,100  Level New York Center
09:18PM 42.1486 -76.1664 246° West 231 266 16,100  Level New York Center
09:19PM 42.1222 -76.2425 245° Southwest 231 266 16,100  Level New York Center
09:20PM 42.0978 -76.3186 247° West 231 266 16,100  Level New York Center
09:21PM 42.0711 -76.3975 246° West 231 266 16,100  Level New York Center
09:22PM 42.0444 -76.4761 245° Southwest 231 266 16,100  Level New York Center
09:23PM 42.0200 -76.5550 247° West 231 266 16,100  Level New York Center
09:24PM 41.9953 -76.6339 247° West 231 266 16,100  Level New York Center
09:25PM 41.9683 -76.7125 245° Southwest 231 266 16,100  Level New York Center
09:26PM 41.9439 -76.7883 247° West 231 266 16,100  Level New York Center
09:28PM 41.8981 -76.9394 248° West 230 265 16,100  Level Cleveland Center
09:29PM 41.8733 -77.0164 247° West 230 265 16,100  Level Cleveland Center
09:30PM 41.8444 -77.0958 244° Southwest 230 265 16,100  Level Cleveland Center
09:31PM 41.8197 -77.1725 247° West 235 270 16,100 -60 Level Cleveland Center
09:32PM 41.7928 -77.2492 245° Southwest 235 270 16,000 -60 Descending Cleveland Center
09:33PM 41.7636 -77.3258 243° Southwest 235 270 16,000  Level Cleveland Center
09:34PM 41.7347 -77.4053 244° Southwest 240 276 16,000  Level Cleveland Center
09:35PM 41.7056 -77.4819 243° Southwest 240 276 16,000  Level Cleveland Center
09:36PM 41.6700 -77.5558 237° Southwest 245 282 16,100  Climbing Cleveland Center
09:37PM 41.6386 -77.6325 241° Southwest 245 282 16,100  Level Cleveland Center
09:38PM 41.6092 -77.7086 243° Southwest 245 282 16,100  Level Cleveland Center
09:39PM 41.5800 -77.7878 244° Southwest 245 282 16,100  Level Cleveland Center
09:40PM 41.5483 -77.8639 241° Southwest 245 282 16,100  Level Cleveland Center
09:41PM 41.5169 -77.9514 244° Southwest 245 282 16,100  Level Cleveland Center
09:42PM 41.4856 -78.0303 242° Southwest 245 282 16,100  Level Cleveland Center
09:43PM 41.4644 -78.1114 251° West 245 282 16,100  Level Cleveland Center
09:44PM 41.4411 -78.1925 249° West 240 276 16,100 -60 Level Cleveland Center
09:45PM 41.4178 -78.2711 248° West 235 270 16,000  Descending Cleveland Center
09:46PM 41.3964 -78.3519 251° West 235 270 16,100  Climbing Cleveland Center
09:47PM 41.3728 -78.4331 249° West 235 270 16,000 -60 Descending Cleveland Center
09:48PM 41.3514 -78.5169 251° West 235 270 16,000  Level Cleveland Center
09:49PM 41.3278 -78.5978 249° West 235 270 16,000  Level Cleveland Center
09:50PM 41.2958 -78.6733 241° Southwest 235 270 16,100  Climbing Cleveland Center
09:51PM 41.2636 -78.7517 241° Southwest 240 276 16,000  Descending Cleveland Center
09:52PM 41.2294 -78.8272 239° Southwest 245 282 16,100  Climbing Cleveland Center
09:53PM 41.1972 -78.8997 239° Southwest 245 282 16,100  Level Cleveland Center
09:54PM 41.1669 -78.9694 240° Southwest 245 282 16,100  Level Cleveland Center
09:55PM 41.1347 -79.0447 240° Southwest 245 282 16,100 -60 Level Cleveland Center
09:56PM 41.0983 -79.1311 241° Southwest 245 282 16,000 -60 Descending Cleveland Center
09:57PM 41.0678 -79.2089 242° Southwest 245 282 16,000  Level Cleveland Center
09:58PM 41.0375 -79.2867 243° Southwest 245 282 16,000  Level Cleveland Center
09:59PM 41.0072 -79.3642 243° Southwest 245 282 16,100  Climbing Cleveland Center
10:00PM 40.9767 -79.4417 242° Southwest 245 282 16,100  Level Cleveland Center
10:01PM 40.9461 -79.5192 242° Southwest 245 282 16,100  Level Cleveland Center
10:02PM 40.9156 -79.5967 242° Southwest 245 282 16,100  Level Cleveland Center
10:03PM 40.8850 -79.6742 242° Southwest 245 282 16,100  Level Cleveland Center
10:04PM 40.8542 -79.7514 242° Southwest 245 282 16,100  Level Cleveland Center
10:05PM 40.8256 -79.8286 244° Southwest 245 282 16,100  Level Cleveland Center
10:06PM 40.7947 -79.9056 242° Southwest 245 282 16,100  Level Cleveland Center
10:07PM 40.7639 -79.9828 242° Southwest 245 282 16,100 -60 Level Cleveland Center
10:08PM 40.7353 -80.0625 245° Southwest 245 282 16,000  Descending Cleveland Center
10:09PM 40.7042 -80.1422 243° Southwest 245 282 16,100  Climbing Cleveland Center
10:10PM 40.6753 -80.2189 244° Southwest 245 282 16,000  Descending Cleveland Center
10:11PM 40.6442 -80.2986 243° Southwest 245 282 16,100  Climbing Cleveland Center
10:12PM 40.6131 -80.3781 243° Southwest 245 282 16,100  Level Cleveland Center
10:13PM 40.5861 -80.4436 242° Southwest 244 281 16,100  Level Cleveland Center
10:14PM 40.5550 -80.5203 242° Southwest 244 281 16,100  Level Cleveland Center
10:15PM 40.5236 -80.5967 242° Southwest 244 281 16,100  Level Cleveland Center
10:16PM 40.4944 -80.6758 244° Southwest 244 281 16,100  Level Cleveland Center
10:17PM 40.4611 -80.7522 240° Southwest 244 281 16,100  Level Cleveland Center
10:18PM 40.4275 -80.8258 239° Southwest 244 281 16,100  Level Cleveland Center
10:19PM 40.3961 -80.9019 242° Southwest 244 281 16,100  Level Cleveland Center
10:20PM 40.3603 -80.9756 237° Southwest 244 281 16,100  Level Cleveland Center
10:21PM 40.3267 -81.0514 240° Southwest 249 287 16,100  Level Cleveland Center
10:22PM 40.2931 -81.1275 240° Southwest 249 287 16,100  Level Cleveland Center
10:23PM 40.2594 -81.2006 239° Southwest 249 287 16,100  Level Cleveland Center
10:24PM 40.2247 -81.2750 239° Southwest 239 275 16,100  Level Indianapolis Center
10:25PM 40.1903 -81.3500 239° Southwest 237 273 16,100  Level Indianapolis Center
10:26PM 40.1556 -81.4261 239° Southwest 239 275 16,100  Level Indianapolis Center
10:27PM 40.1217 -81.5011 239° Southwest 239 275 16,100  Level Indianapolis Center
10:28PM 40.0869 -81.5775 239° Southwest 241 277 16,100  Level Indianapolis Center
10:29PM 40.0528 -81.6528 239° Southwest 240 276 16,100  Level Indianapolis Center
10:30PM 40.0181 -81.7272 239° Southwest 238 274 16,100  Level Indianapolis Center
10:31PM 39.9833 -81.8050 240° Southwest 244 281 16,100  Level Indianapolis Center
10:32PM 39.9528 -81.8719 239° Southwest 241 277 16,100  Level Indianapolis Center
10:33PM 39.9206 -81.9500 242° Southwest 244 281 16,100  Level Indianapolis Center
10:34PM 39.8964 -82.0464 252° West 237 273 16,100  Level Indianapolis Center
10:35PM 39.8775 -82.1300 254° West 240 276 16,100  Level Indianapolis Center
10:36PM 39.8569 -82.2114 252° West 238 274 16,100  Level Indianapolis Center
10:37PM 39.8369 -82.2956 253° West 243 280 16,100 -240 Level Indianapolis Center
10:38PM 39.8183 -82.3769 253° West 239 275 15,700 -720 Descending Indianapolis Center
10:39PM 39.8081 -82.4189 252° West 257 296 15,100 -1,200 Descending Indianapolis Center
10:39PM 39.7961 -82.4672 252° West 253 291 14,400 -1,140 Descending Indianapolis Center
10:40PM 39.7761 -82.5647 255° West 271 312 13,300 -1,140 Descending Indianapolis Center
10:41PM 39.7606 -82.6519 257° West 258 297 12,100 -1,200 Descending Indianapolis Center
10:42PM 39.7417 -82.7375 254° West 251 289 10,900 -1,020 Descending Indianapolis Center
10:43PM 39.7214 -82.8275 254° West 255 293 10,100 -480 Descending Indianapolis Center
10:44PM 39.7042 -82.9122 255° West 247 284 10,000 -60 Descending Indianapolis Center
10:45PM 39.6833 -82.9978 252° West 248 285 10,000  Level Indianapolis Center
10:46PM 39.6567 -83.1011 251° West 252 290 10,000  Level Indianapolis Center
10:47PM 39.6283 -83.1842 246° West 252 290 10,000  Level Indianapolis Center
10:48PM 39.5956 -83.2669 243° Southwest 253 291 10,000  Level Indianapolis Center
10:49PM 39.5642 -83.3481 243° Southwest 253 291 10,000  Level Indianapolis Center
10:50PM 39.5333 -83.4303 244° Southwest 254 292 10,000  Level Indianapolis Center
10:51PM 39.5019 -83.5133 244° Southwest 255 293 10,000  Level Indianapolis Center
10:52PM 39.4667 -83.5975 242° Southwest 258 297 10,000  Level Indianapolis Center
10:54PM 39.4347 -83.6783 243° Southwest 256 295 10,000  Level Indianapolis Center
10:55PM 39.4036 -83.7586 243° Southwest 252 290 10,000  Level Indianapolis Center
10:56PM 39.3675 -83.8536 244° Southwest 260 299 10,000  Level Indianapolis Center
10:57PM 39.3344 -83.9378 243° Southwest 257 296 10,000  Level Indianapolis Center
10:58PM 39.2986 -84.0175 240° Southwest 257 296 10,000  Level Indianapolis Center
10:59PM 39.2622 -84.1003 240° Southwest 264 304 10,000 -600 Level Indianapolis Center
11:00PM 39.2264 -84.1794 240° Southwest 259 298 8,900 -1,080 Descending Indianapolis Center
11:01PM 39.1975 -84.2531 243° Southwest 247 284 7,900 -960 Descending Indianapolis Center
11:02PM 39.1658 -84.3297 242° Southwest 244 281 7,000 -480 Descending Indianapolis Center
11:03PM 39.1336 -84.4036 241° Southwest 241 277 7,000  Level Indianapolis Center
11:04PM 39.0978 -84.4783 238° Southwest 241 277 7,000  Level Indianapolis Center
11:05PM 39.0361 -84.5289 212° Southwest 248 285 7,000  Level Indianapolis Center
11:06PM 38.9822 -84.5294 180° South 199 229 7,100 -480 Climbing Indianapolis Center
11:07PM 38.9269 -84.5289 180° South 198 228 6,100 -600 Descending Indianapolis Center
11:08PM 38.8744 -84.5303 181° South 194 223 5,900 -360 Descending Indianapolis Center
11:09PM 38.8253 -84.5306 180° South 192 221 5,400 -660 Descending Indianapolis Center
11:10PM 38.7722 -84.5400 188° South 89 102 4,600 -900 Descending Indianapolis Center
11:11PM 38.7583 -84.6147 257° West 201 231 3,600 -660 Descending Indianapolis Center
11:12PM 38.7653 -84.6647 280° West 193 222 3,300 -300 Descending Indianapolis Center
11:14PM 38.8500 -84.6667 359° North 155 178 2,700 -300 Descending Cincinnati TRACON
11:15PM 38.9000 -84.6667 360° North 157 181 2,400 -240 Descending Cincinnati TRACON
11:16PM 38.9500 -84.6667 360° North 149 171 2,300 -240 Descending Cincinnati TRACON
11:17PM 38.9833 -84.6667 360° North 144 166 2,000 -540 Descending Cincinnati TRACON
11:18PM 39.0167 -84.6667 360° North 134 154 1,300 -720 Descending Cincinnati TRACON